createdAt,value
2023-04-23T00:00:05.579Z,11.54
2023-04-23T00:00:16.576Z,11.54
2023-04-23T00:00:27.600Z,11.54
2023-04-23T00:00:38.584Z,11.53
2023-04-23T00:00:49.582Z,11.53
2023-04-23T00:01:00.609Z,11.56
2023-04-23T00:01:12.585Z,11.53
2023-04-23T00:01:23.581Z,11.54
2023-04-23T00:01:34.597Z,11.54
2023-04-23T00:01:45.595Z,11.53
2023-04-23T00:01:56.596Z,11.54
2023-04-23T00:02:07.657Z,11.54
2023-04-23T00:02:19.785Z,11.54
2023-04-23T00:02:31.706Z,11.56
2023-04-23T00:02:43.735Z,11.57
2023-04-23T00:02:55.610Z,11.57
2023-04-23T00:03:06.689Z,11.57
2023-04-23T00:03:17.760Z,11.59
2023-04-23T00:03:29.900Z,11.59
2023-04-23T00:03:41.754Z,11.59
2023-04-23T00:03:53.818Z,11.61
2023-04-23T00:04:05.714Z,11.61
2023-04-23T00:04:17.682Z,11.62
2023-04-23T00:04:29.701Z,11.61
2023-04-23T00:04:40.952Z,11.64
2023-04-23T00:04:52.988Z,11.64
2023-04-23T00:05:04.868Z,11.62
2023-04-23T00:05:15.748Z,11.64
2023-04-23T00:05:27.586Z,11.62
2023-04-23T00:05:39.593Z,11.64
2023-04-23T00:05:50.582Z,11.61
2023-04-23T00:06:01.610Z,11.64
2023-04-23T00:06:13.575Z,11.62
2023-04-23T00:06:24.574Z,11.62
2023-04-23T00:06:35.586Z,11.62
2023-04-23T00:06:46.591Z,11.61
2023-04-23T00:06:57.619Z,11.59
2023-04-23T00:07:09.586Z,11.59
2023-04-23T00:07:20.595Z,11.59
2023-04-23T00:07:31.598Z,11.57
2023-04-23T00:07:43.585Z,11.61
2023-04-23T00:07:55.574Z,11.61
2023-04-23T00:08:06.576Z,11.59
2023-04-23T00:08:17.605Z,11.59
2023-04-23T00:08:29.594Z,11.61
2023-04-23T00:08:40.601Z,11.59
2023-04-23T00:08:51.600Z,11.61
2023-04-23T00:09:02.599Z,11.62
2023-04-23T00:09:13.599Z,11.64
2023-04-23T00:09:24.588Z,11.62
2023-04-23T00:09:35.584Z,11.65
2023-04-23T00:09:46.595Z,11.64
2023-04-23T00:09:57.633Z,11.62
2023-04-23T00:10:09.588Z,11.64
2023-04-23T00:10:21.598Z,11.64
2023-04-23T00:10:32.610Z,11.67
2023-04-23T00:10:44.601Z,11.67
2023-04-23T00:10:55.621Z,11.67
2023-04-23T00:11:07.584Z,11.65
2023-04-23T00:11:18.581Z,11.65
2023-04-23T00:11:29.587Z,11.67
2023-04-23T00:11:40.590Z,11.65
2023-04-23T00:11:51.584Z,11.65
2023-04-23T00:12:03.601Z,11.67
2023-04-23T00:12:14.598Z,11.67
2023-04-23T00:12:25.611Z,11.65
2023-04-23T00:12:37.590Z,11.65
2023-04-23T00:12:48.589Z,11.65
2023-04-23T00:12:59.598Z,11.64
2023-04-23T00:13:11.672Z,11.65
2023-04-23T00:13:22.562Z,11.64
2023-04-23T00:13:33.576Z,11.65
2023-04-23T00:13:44.617Z,11.64
2023-04-23T00:13:56.581Z,11.64
2023-04-23T00:14:07.614Z,11.62
2023-04-23T00:14:18.611Z,11.64
2023-04-23T00:14:29.616Z,11.64
2023-04-23T00:14:41.918Z,11.65
2023-04-23T00:14:53.576Z,11.65
2023-04-23T00:15:04.573Z,11.67
2023-04-23T00:15:15.563Z,11.67
2023-04-23T00:15:26.555Z,11.65
2023-04-23T00:15:37.550Z,11.67
2023-04-23T00:15:48.601Z,11.65
2023-04-23T00:16:00.599Z,11.65
2023-04-23T00:16:12.612Z,11.67
2023-04-23T00:16:24.813Z,11.68
2023-04-23T00:16:36.628Z,11.65
2023-04-23T00:16:47.600Z,11.65
2023-04-23T00:16:58.600Z,11.65
2023-04-23T00:17:09.571Z,11.67
2023-04-23T00:17:20.628Z,11.68
2023-04-23T00:17:32.602Z,11.68
2023-04-23T00:17:43.639Z,11.68
2023-04-23T00:17:55.133Z,11.68
2023-04-23T00:18:05.585Z,11.68
2023-04-23T00:18:16.573Z,11.68
2023-04-23T00:18:27.572Z,11.67
2023-04-23T00:18:38.592Z,11.70
2023-04-23T00:18:50.597Z,11.67
2023-04-23T00:19:01.583Z,11.68
2023-04-23T00:19:12.612Z,11.68
2023-04-23T00:19:23.602Z,11.68
2023-04-23T00:19:35.588Z,11.68
2023-04-23T00:19:47.594Z,11.68
2023-04-23T00:19:59.570Z,11.68
2023-04-23T00:20:10.627Z,11.68
2023-04-23T00:20:22.613Z,11.68
2023-04-23T00:20:33.597Z,11.68
2023-04-23T00:20:44.599Z,11.67
2023-04-23T00:20:55.596Z,11.67
2023-04-23T00:21:07.579Z,11.68
2023-04-23T00:21:18.575Z,11.68
2023-04-23T00:21:29.563Z,11.67
2023-04-23T00:21:40.572Z,11.68
2023-04-23T00:21:51.602Z,11.70
2023-04-23T00:22:02.612Z,11.70
2023-04-23T00:22:14.590Z,11.68
2023-04-23T00:22:25.616Z,11.70
2023-04-23T00:22:37.577Z,11.70
2023-04-23T00:22:48.582Z,11.68
2023-04-23T00:22:59.601Z,11.70
2023-04-23T00:23:10.603Z,11.70
2023-04-23T00:23:21.608Z,11.70
2023-04-23T00:23:32.592Z,11.68
2023-04-23T00:23:43.608Z,11.71
2023-04-23T00:23:54.602Z,11.70
2023-04-23T00:24:05.633Z,11.68
2023-04-23T00:24:17.632Z,11.70
2023-04-23T00:24:29.599Z,11.68
2023-04-23T00:24:40.799Z,11.68
2023-04-23T00:24:52.590Z,11.68
2023-04-23T00:25:03.585Z,11.68
2023-04-23T00:25:14.582Z,11.68
2023-04-23T00:25:25.599Z,11.70
2023-04-23T00:25:36.582Z,11.68
2023-04-23T00:25:47.652Z,11.70
2023-04-23T00:25:58.559Z,11.68
2023-04-23T00:26:09.578Z,11.70
2023-04-23T00:26:20.583Z,11.70
2023-04-23T00:26:31.595Z,11.70
2023-04-23T00:26:42.594Z,11.70
2023-04-23T00:26:53.602Z,11.71
2023-04-23T00:27:05.595Z,11.71
2023-04-23T00:27:17.590Z,11.72
2023-04-23T00:27:28.603Z,11.72
2023-04-23T00:27:39.598Z,11.74
2023-04-23T00:27:50.585Z,11.72
2023-04-23T00:28:02.608Z,11.72
2023-04-23T00:28:13.588Z,11.72
2023-04-23T00:28:24.591Z,11.74
2023-04-23T00:28:35.576Z,11.74
2023-04-23T00:28:46.580Z,11.74
2023-04-23T00:28:57.599Z,11.77
2023-04-23T00:29:09.573Z,11.77
2023-04-23T00:29:20.576Z,11.75
2023-04-23T00:29:31.576Z,11.75
2023-04-23T00:29:42.579Z,11.75
2023-04-23T00:29:53.593Z,11.78
2023-04-23T00:30:04.595Z,11.77
2023-04-23T00:30:16.575Z,11.75
2023-04-23T00:30:27.587Z,11.75
2023-04-23T00:30:38.587Z,11.75
2023-04-23T00:30:49.602Z,11.75
2023-04-23T00:31:01.572Z,11.77
2023-04-23T00:31:12.584Z,11.75
2023-04-23T00:31:23.612Z,11.75
2023-04-23T00:31:35.598Z,11.75
2023-04-23T00:31:47.628Z,11.74
2023-04-23T00:31:58.654Z,11.74
2023-04-23T00:32:09.591Z,11.75
2023-04-23T00:32:20.676Z,11.74
2023-04-23T00:32:31.652Z,11.74
2023-04-23T00:32:42.605Z,11.74
2023-04-23T00:32:53.562Z,11.74
2023-04-23T00:33:04.553Z,11.75
2023-04-23T00:33:15.587Z,11.72
2023-04-23T00:33:26.599Z,11.74
2023-04-23T00:33:37.603Z,11.72
2023-04-23T00:33:48.592Z,11.74
2023-04-23T00:33:59.593Z,11.74
2023-04-23T00:34:10.585Z,11.72
2023-04-23T00:34:21.603Z,11.71
2023-04-23T00:34:32.610Z,11.72
2023-04-23T00:34:43.853Z,11.72
2023-04-23T00:34:55.582Z,11.72
2023-04-23T00:35:06.586Z,11.72
2023-04-23T00:35:17.594Z,11.72
2023-04-23T00:35:28.597Z,11.72
2023-04-23T00:35:39.606Z,11.72
2023-04-23T00:35:50.597Z,11.71
2023-04-23T00:36:01.593Z,11.71
2023-04-23T00:36:12.594Z,11.71
2023-04-23T00:36:23.588Z,11.71
2023-04-23T00:36:34.602Z,11.71
2023-04-23T00:36:45.589Z,11.71
2023-04-23T00:36:56.592Z,11.70
2023-04-23T00:37:07.580Z,11.71
2023-04-23T00:37:18.574Z,11.70
2023-04-23T00:37:29.590Z,11.71
2023-04-23T00:37:40.590Z,11.71
2023-04-23T00:37:51.582Z,11.71
2023-04-23T00:38:02.563Z,11.71
2023-04-23T00:38:13.589Z,11.71
2023-04-23T00:38:24.602Z,11.71
2023-04-23T00:38:35.603Z,11.72
2023-04-23T00:38:46.599Z,11.71
2023-04-23T00:38:57.574Z,11.71
2023-04-23T00:39:08.564Z,11.72
2023-04-23T00:39:19.555Z,11.71
2023-04-23T00:39:30.549Z,11.72
2023-04-23T00:39:41.556Z,11.72
2023-04-23T00:39:52.562Z,11.72
2023-04-23T00:40:03.551Z,11.74
2023-04-23T00:40:14.550Z,11.72
2023-04-23T00:40:25.559Z,11.74
2023-04-23T00:40:36.586Z,11.74
2023-04-23T00:40:47.602Z,11.72
2023-04-23T00:40:58.589Z,11.72
2023-04-23T00:41:09.601Z,11.74
2023-04-23T00:41:20.605Z,11.74
2023-04-23T00:41:31.603Z,11.72
2023-04-23T00:41:42.602Z,11.74
2023-04-23T00:41:53.599Z,11.72
2023-04-23T00:42:04.607Z,11.72
2023-04-23T00:42:15.601Z,11.72
2023-04-23T00:42:26.583Z,11.71
2023-04-23T00:42:37.581Z,11.72
2023-04-23T00:42:48.572Z,11.71
2023-04-23T00:42:59.573Z,11.71
2023-04-23T00:43:10.575Z,11.71
2023-04-23T00:43:21.572Z,11.70
2023-04-23T00:43:32.572Z,11.70
2023-04-23T00:43:43.575Z,11.68
2023-04-23T00:43:54.572Z,11.70
2023-04-23T00:44:05.579Z,11.70
2023-04-23T00:44:16.565Z,11.70
2023-04-23T00:44:27.560Z,11.70
2023-04-23T00:44:38.758Z,11.70
2023-04-23T00:44:49.602Z,11.68
2023-04-23T00:45:00.595Z,11.68
2023-04-23T00:45:11.578Z,11.67
2023-04-23T00:45:23.576Z,11.70
2023-04-23T00:45:34.619Z,11.68
2023-04-23T00:45:46.642Z,11.68
2023-04-23T00:45:58.640Z,11.67
2023-04-23T00:46:10.673Z,11.68
2023-04-23T00:46:21.689Z,11.68
2023-04-23T00:46:33.606Z,11.68
2023-04-23T00:46:45.584Z,11.65
2023-04-23T00:46:56.589Z,11.67
2023-04-23T00:47:07.586Z,11.67
2023-04-23T00:47:18.617Z,11.67
2023-04-23T00:47:30.639Z,11.68
2023-04-23T00:47:42.613Z,11.65
2023-04-23T00:47:53.583Z,11.67
2023-04-23T00:48:04.587Z,11.65
2023-04-23T00:48:16.599Z,11.65
2023-04-23T00:48:27.587Z,11.67
2023-04-23T00:48:38.588Z,11.65
2023-04-23T00:48:50.581Z,11.64
2023-04-23T00:49:01.594Z,11.64
2023-04-23T00:49:12.619Z,11.62
2023-04-23T00:49:23.562Z,11.62
2023-04-23T00:49:34.565Z,11.62
2023-04-23T00:49:45.570Z,11.62
2023-04-23T00:49:56.565Z,11.62
2023-04-23T00:50:07.555Z,11.62
2023-04-23T00:50:18.599Z,11.62
2023-04-23T00:50:29.593Z,11.64
2023-04-23T00:50:40.588Z,11.61
2023-04-23T00:50:52.574Z,11.62
2023-04-23T00:51:03.576Z,11.61
2023-04-23T00:51:14.597Z,11.62
2023-04-23T00:51:25.617Z,11.61
2023-04-23T00:51:37.586Z,11.64
2023-04-23T00:51:48.562Z,11.61
2023-04-23T00:51:59.556Z,11.59
2023-04-23T00:52:10.635Z,11.62
2023-04-23T00:52:22.598Z,11.59
2023-04-23T00:52:33.587Z,11.61
2023-04-23T00:52:44.578Z,11.59
2023-04-23T00:52:55.595Z,11.59
2023-04-23T00:53:07.613Z,11.59
2023-04-23T00:53:19.580Z,11.59
2023-04-23T00:53:30.593Z,11.57
2023-04-23T00:53:41.596Z,11.59
2023-04-23T00:53:52.610Z,11.57
2023-04-23T00:54:04.576Z,11.59
2023-04-23T00:54:15.585Z,11.57
2023-04-23T00:54:26.583Z,11.57
2023-04-23T00:54:37.589Z,11.59
2023-04-23T00:54:48.596Z,11.57
2023-04-23T00:54:59.596Z,11.57
2023-04-23T00:55:10.594Z,11.59
2023-04-23T00:55:21.611Z,11.57
2023-04-23T00:55:33.573Z,11.57
2023-04-23T00:55:44.584Z,11.57
2023-04-23T00:55:55.585Z,11.61
2023-04-23T00:56:06.594Z,11.59
2023-04-23T00:56:17.599Z,11.59
2023-04-23T00:56:28.607Z,11.61
2023-04-23T00:56:39.617Z,11.59
2023-04-23T00:56:51.582Z,11.59
2023-04-23T00:57:02.589Z,11.59
2023-04-23T00:57:13.589Z,11.57
2023-04-23T00:57:25.591Z,11.57
2023-04-23T00:57:36.597Z,11.54
2023-04-23T00:57:47.607Z,11.56
2023-04-23T00:57:58.598Z,11.54
2023-04-23T00:58:09.597Z,11.56
2023-04-23T00:58:20.601Z,11.53
2023-04-23T00:58:31.601Z,11.56
2023-04-23T00:58:42.601Z,11.53
2023-04-23T00:58:53.598Z,11.53
2023-04-23T00:59:05.600Z,11.53
2023-04-23T00:59:16.599Z,11.53
2023-04-23T00:59:27.598Z,11.54
2023-04-23T00:59:39.575Z,11.53
2023-04-23T00:59:50.604Z,11.53
2023-04-23T01:00:01.622Z,11.53
2023-04-23T01:00:13.609Z,11.53
2023-04-23T01:00:24.600Z,11.53
2023-04-23T01:00:35.606Z,11.53
2023-04-23T01:00:46.669Z,11.53
2023-04-23T01:00:57.619Z,11.54
2023-04-23T01:01:09.650Z,11.53
2023-04-23T01:01:20.630Z,11.53
2023-04-23T01:01:31.589Z,11.54
2023-04-23T01:01:42.683Z,11.54
2023-04-23T01:01:54.569Z,11.53
2023-04-23T01:02:05.735Z,11.53
2023-04-23T01:02:17.701Z,11.53
2023-04-23T01:02:29.719Z,11.52
2023-04-23T01:02:40.679Z,11.52
2023-04-23T01:02:51.724Z,11.52
2023-04-23T01:03:02.704Z,11.52
2023-04-23T01:03:13.765Z,11.52
2023-04-23T01:03:24.642Z,11.50
2023-04-23T01:03:36.844Z,11.50
2023-04-23T01:03:47.651Z,11.49
2023-04-23T01:03:58.867Z,11.49
2023-04-23T01:04:09.689Z,11.50
2023-04-23T01:04:20.590Z,11.50
2023-04-23T01:04:31.590Z,11.49
2023-04-23T01:04:42.767Z,11.49
2023-04-23T01:04:54.591Z,11.47
2023-04-23T01:05:05.608Z,11.49
2023-04-23T01:05:16.599Z,11.49
2023-04-23T01:05:28.591Z,11.49
2023-04-23T01:05:39.597Z,11.50
2023-04-23T01:05:50.604Z,11.49
2023-04-23T01:06:01.603Z,11.50
2023-04-23T01:06:12.595Z,11.50
2023-04-23T01:06:23.594Z,11.52
2023-04-23T01:06:34.626Z,11.49
2023-04-23T01:06:46.620Z,11.50
2023-04-23T01:06:58.593Z,11.50
2023-04-23T01:07:09.613Z,11.50
2023-04-23T01:07:20.624Z,11.50
2023-04-23T01:07:31.605Z,11.50
2023-04-23T01:07:42.589Z,11.49
2023-04-23T01:07:53.587Z,11.50
2023-04-23T01:08:04.602Z,11.50
2023-04-23T01:08:15.611Z,11.49
2023-04-23T01:08:26.593Z,11.50
2023-04-23T01:08:38.609Z,11.49
2023-04-23T01:08:49.605Z,11.50
2023-04-23T01:09:00.592Z,11.49
2023-04-23T01:09:11.595Z,11.50
2023-04-23T01:09:22.649Z,11.49
2023-04-23T01:09:33.571Z,11.47
2023-04-23T01:09:44.587Z,11.47
2023-04-23T01:09:55.600Z,11.47
2023-04-23T01:10:06.603Z,11.47
2023-04-23T01:10:17.600Z,11.46
2023-04-23T01:10:29.595Z,11.47
2023-04-23T01:10:40.585Z,11.46
2023-04-23T01:10:51.601Z,11.46
2023-04-23T01:11:02.598Z,11.47
2023-04-23T01:11:14.582Z,11.46
2023-04-23T01:11:25.600Z,11.46
2023-04-23T01:11:36.592Z,11.47
2023-04-23T01:11:47.597Z,11.43
2023-04-23T01:11:58.604Z,11.46
2023-04-23T01:12:10.580Z,11.46
2023-04-23T01:12:22.612Z,11.44
2023-04-23T01:12:33.636Z,11.43
2023-04-23T01:12:45.602Z,11.43
2023-04-23T01:12:56.604Z,11.43
2023-04-23T01:13:08.604Z,11.43
2023-04-23T01:13:19.593Z,11.41
2023-04-23T01:13:30.605Z,11.43
2023-04-23T01:13:41.611Z,11.41
2023-04-23T01:13:53.586Z,11.41
2023-04-23T01:14:04.565Z,11.39
2023-04-23T01:14:15.571Z,11.39
2023-04-23T01:14:26.585Z,11.39
2023-04-23T01:14:37.625Z,11.39
2023-04-23T01:14:49.590Z,11.36
2023-04-23T01:15:00.602Z,11.35
2023-04-23T01:15:11.629Z,11.35
2023-04-23T01:15:23.594Z,11.36
2023-04-23T01:15:34.602Z,11.36
2023-04-23T01:15:45.611Z,11.36
2023-04-23T01:15:57.607Z,11.36
2023-04-23T01:16:08.629Z,11.35
2023-04-23T01:16:20.633Z,11.35
2023-04-23T01:16:32.608Z,11.36
2023-04-23T01:16:44.638Z,11.35
2023-04-23T01:16:55.618Z,11.35
2023-04-23T01:17:06.705Z,11.32
2023-04-23T01:17:18.620Z,11.34
2023-04-23T01:17:30.642Z,11.34
2023-04-23T01:17:42.634Z,11.32
2023-04-23T01:17:55.647Z,11.29
2023-04-23T01:18:05.607Z,11.29
2023-04-23T01:18:16.681Z,11.29
2023-04-23T01:18:27.596Z,11.29
2023-04-23T01:18:38.611Z,11.29
2023-04-23T01:18:49.607Z,11.29
2023-04-23T01:19:00.612Z,11.29
2023-04-23T01:19:11.600Z,11.27
2023-04-23T01:19:23.593Z,11.27
2023-04-23T01:19:34.588Z,11.27
2023-04-23T01:19:45.591Z,11.25
2023-04-23T01:19:56.601Z,11.25
2023-04-23T01:20:07.591Z,11.24
2023-04-23T01:20:18.581Z,11.24
2023-04-23T01:20:29.588Z,11.24
2023-04-23T01:20:40.610Z,11.24
2023-04-23T01:20:51.636Z,11.24
2023-04-23T01:21:03.600Z,11.20
2023-04-23T01:21:14.597Z,11.20
2023-04-23T01:21:26.605Z,11.20
2023-04-23T01:21:37.586Z,11.19
2023-04-23T01:21:48.620Z,11.20
2023-04-23T01:22:00.580Z,11.19
2023-04-23T01:22:11.582Z,11.16
2023-04-23T01:22:22.605Z,11.17
2023-04-23T01:22:34.592Z,11.19
2023-04-23T01:22:45.592Z,11.19
2023-04-23T01:22:56.569Z,11.19
2023-04-23T01:23:07.616Z,11.17
2023-04-23T01:23:19.604Z,11.17
2023-04-23T01:23:30.605Z,11.17
2023-04-23T01:23:41.617Z,11.17
2023-04-23T01:23:53.607Z,11.17
2023-04-23T01:24:04.615Z,11.17
2023-04-23T01:24:15.615Z,11.14
2023-04-23T01:24:26.606Z,11.14
2023-04-23T01:24:37.626Z,11.14
2023-04-23T01:24:49.608Z,11.14
2023-04-23T01:25:00.610Z,11.13
2023-04-23T01:25:12.582Z,11.13
2023-04-23T01:25:23.600Z,11.14
2023-04-23T01:25:34.602Z,11.13
2023-04-23T01:25:46.609Z,11.14
2023-04-23T01:25:58.585Z,11.13
2023-04-23T01:26:09.590Z,11.13
2023-04-23T01:26:20.579Z,11.13
2023-04-23T01:26:31.597Z,11.10
2023-04-23T01:26:42.589Z,11.11
2023-04-23T01:26:53.575Z,11.11
2023-04-23T01:27:04.564Z,11.10
2023-04-23T01:27:15.595Z,11.11
2023-04-23T01:27:27.587Z,11.11
2023-04-23T01:27:38.602Z,11.11
2023-04-23T01:27:49.600Z,11.10
2023-04-23T01:28:00.664Z,11.10
2023-04-23T01:28:12.616Z,11.10
2023-04-23T01:28:23.609Z,11.09
2023-04-23T01:28:35.614Z,11.10
2023-04-23T01:28:47.599Z,11.10
2023-04-23T01:28:58.599Z,11.11
2023-04-23T01:29:09.592Z,11.10
2023-04-23T01:29:20.597Z,11.09
2023-04-23T01:29:31.576Z,11.10
2023-04-23T01:29:42.580Z,11.10
2023-04-23T01:29:53.563Z,11.09
2023-04-23T01:30:04.565Z,11.09
2023-04-23T01:30:15.566Z,11.10
2023-04-23T01:30:26.570Z,11.09
2023-04-23T01:30:37.658Z,11.09
2023-04-23T01:30:49.644Z,11.07
2023-04-23T01:31:00.626Z,11.06
2023-04-23T01:31:12.630Z,11.07
2023-04-23T01:31:23.884Z,11.09
2023-04-23T01:31:35.606Z,11.07
2023-04-23T01:31:47.596Z,11.06
2023-04-23T01:31:58.586Z,11.06
2023-04-23T01:32:09.606Z,11.06
2023-04-23T01:32:20.649Z,11.06
2023-04-23T01:32:32.644Z,11.06
2023-04-23T01:32:44.655Z,11.06
2023-04-23T01:32:56.682Z,11.03
2023-04-23T01:33:08.559Z,11.06
2023-04-23T01:33:19.565Z,11.03
2023-04-23T01:33:30.596Z,11.06
2023-04-23T01:33:41.602Z,11.06
2023-04-23T01:33:52.608Z,11.03
2023-04-23T01:34:03.625Z,11.01
2023-04-23T01:34:15.591Z,11.01
2023-04-23T01:34:26.592Z,11.02
2023-04-23T01:34:37.596Z,11.02
2023-04-23T01:34:48.594Z,11.02
2023-04-23T01:34:59.609Z,11.02
2023-04-23T01:35:10.604Z,11.02
2023-04-23T01:35:21.585Z,11.02
2023-04-23T01:35:32.602Z,11.02
2023-04-23T01:35:43.600Z,11.02
2023-04-23T01:35:54.615Z,11.02
2023-04-23T01:36:05.614Z,11.03
2023-04-23T01:36:16.641Z,11.03
2023-04-23T01:36:28.607Z,11.03
2023-04-23T01:36:39.584Z,11.03
2023-04-23T01:36:50.576Z,11.03
2023-04-23T01:37:01.581Z,11.03
2023-04-23T01:37:12.590Z,11.03
2023-04-23T01:37:23.609Z,11.03
2023-04-23T01:37:34.612Z,11.03
2023-04-23T01:37:45.606Z,11.03
2023-04-23T01:37:57.571Z,11.02
2023-04-23T01:38:09.586Z,11.02
2023-04-23T01:38:20.571Z,11.03
2023-04-23T01:38:31.554Z,11.02
2023-04-23T01:38:42.550Z,11.02
2023-04-23T01:38:53.563Z,11.03
2023-04-23T01:39:04.571Z,11.02
2023-04-23T01:39:15.564Z,11.02
2023-04-23T01:39:26.550Z,11.02
2023-04-23T01:39:37.566Z,11.01
2023-04-23T01:39:48.554Z,11.02
2023-04-23T01:39:59.647Z,11.03
2023-04-23T01:40:11.635Z,11.02
2023-04-23T01:40:23.608Z,11.02
2023-04-23T01:40:35.587Z,11.02
2023-04-23T01:40:46.599Z,11.01
2023-04-23T01:40:58.600Z,10.99
2023-04-23T01:41:10.573Z,10.99
2023-04-23T01:41:21.597Z,11.01
2023-04-23T01:41:32.584Z,10.99
2023-04-23T01:41:43.601Z,11.01
2023-04-23T01:41:55.575Z,11.02
2023-04-23T01:42:06.576Z,11.01
2023-04-23T01:42:17.568Z,11.01
2023-04-23T01:42:28.571Z,11.02
2023-04-23T01:42:39.555Z,10.99
2023-04-23T01:42:50.569Z,11.02
2023-04-23T01:43:01.596Z,10.99
2023-04-23T01:43:13.593Z,10.98
2023-04-23T01:43:25.584Z,10.98
2023-04-23T01:43:36.575Z,10.96
2023-04-23T01:43:47.573Z,10.98
2023-04-23T01:43:58.571Z,10.95
2023-04-23T01:44:09.563Z,10.98
2023-04-23T01:44:20.550Z,10.95
2023-04-23T01:44:31.609Z,10.96
2023-04-23T01:44:42.822Z,10.96
2023-04-23T01:44:53.591Z,10.96
2023-04-23T01:45:04.599Z,10.95
2023-04-23T01:45:15.622Z,10.95
2023-04-23T01:45:27.571Z,10.96
2023-04-23T01:45:38.573Z,10.95
2023-04-23T01:45:49.663Z,10.94
2023-04-23T01:46:00.606Z,10.94
2023-04-23T01:46:11.582Z,10.94
2023-04-23T01:46:22.737Z,10.95
2023-04-23T01:46:34.736Z,10.95
2023-04-23T01:46:46.592Z,10.94
2023-04-23T01:46:58.580Z,10.94
2023-04-23T01:47:09.567Z,10.91
2023-04-23T01:47:20.662Z,10.92
2023-04-23T01:47:32.634Z,10.91
2023-04-23T01:47:44.651Z,10.91
2023-04-23T01:47:56.649Z,10.89
2023-04-23T01:48:08.594Z,10.91
2023-04-23T01:48:19.603Z,10.89
2023-04-23T01:48:30.602Z,10.88
2023-04-23T01:48:41.602Z,10.88
2023-04-23T01:48:52.587Z,10.88
2023-04-23T01:49:03.591Z,10.84
2023-04-23T01:49:14.599Z,10.83
2023-04-23T01:49:25.595Z,10.81
2023-04-23T01:49:36.588Z,10.81
2023-04-23T01:49:47.606Z,10.81
2023-04-23T01:49:58.604Z,10.81
2023-04-23T01:50:09.671Z,10.80
2023-04-23T01:50:21.628Z,10.78
2023-04-23T01:50:33.584Z,10.80
2023-04-23T01:50:44.584Z,10.77
2023-04-23T01:50:55.584Z,10.78
2023-04-23T01:51:06.574Z,10.78
2023-04-23T01:51:17.606Z,10.78
2023-04-23T01:51:29.583Z,10.77
2023-04-23T01:51:40.610Z,10.78
2023-04-23T01:51:51.595Z,10.78
2023-04-23T01:52:03.585Z,10.80
2023-04-23T01:52:15.579Z,10.80
2023-04-23T01:52:26.575Z,10.81
2023-04-23T01:52:37.578Z,10.81
2023-04-23T01:52:48.587Z,10.80
2023-04-23T01:52:59.592Z,10.80
2023-04-23T01:53:10.581Z,10.81
2023-04-23T01:53:21.608Z,10.80
2023-04-23T01:53:32.591Z,10.80
2023-04-23T01:53:44.605Z,10.80
2023-04-23T01:53:55.601Z,10.80
2023-04-23T01:54:06.598Z,10.78
2023-04-23T01:54:18.618Z,10.78
2023-04-23T01:54:30.576Z,10.80
2023-04-23T01:54:41.780Z,10.78
2023-04-23T01:54:53.591Z,10.78
2023-04-23T01:55:04.595Z,10.77
2023-04-23T01:55:15.564Z,10.77
2023-04-23T01:55:26.559Z,10.77
2023-04-23T01:55:37.566Z,10.77
2023-04-23T01:55:48.556Z,10.78
2023-04-23T01:55:59.684Z,10.77
2023-04-23T01:56:10.583Z,10.76
2023-04-23T01:56:21.581Z,10.77
2023-04-23T01:56:32.588Z,10.76
2023-04-23T01:56:43.597Z,10.77
2023-04-23T01:56:54.605Z,10.76
2023-04-23T01:57:05.589Z,10.74
2023-04-23T01:57:16.595Z,10.74
2023-04-23T01:57:27.599Z,10.74
2023-04-23T01:57:38.626Z,10.74
2023-04-23T01:57:50.582Z,10.74
2023-04-23T01:58:01.600Z,10.73
2023-04-23T01:58:13.572Z,10.73
2023-04-23T01:58:24.571Z,10.71
2023-04-23T01:58:35.565Z,10.70
2023-04-23T01:58:46.555Z,10.70
2023-04-23T01:58:57.586Z,10.71
2023-04-23T01:59:08.585Z,10.68
2023-04-23T01:59:19.605Z,10.70
2023-04-23T01:59:30.598Z,10.68
2023-04-23T01:59:41.596Z,10.70
2023-04-23T01:59:52.589Z,10.68
2023-04-23T02:00:04.588Z,10.68
2023-04-23T02:00:15.585Z,10.70
2023-04-23T02:00:26.577Z,10.70
2023-04-23T02:00:37.564Z,10.70
2023-04-23T02:00:48.555Z,10.68
2023-04-23T02:00:59.554Z,10.68
2023-04-23T02:01:10.604Z,10.70
2023-04-23T02:01:21.674Z,10.71
2023-04-23T02:01:33.628Z,10.71
2023-04-23T02:01:45.625Z,10.70
2023-04-23T02:01:57.700Z,10.70
2023-04-23T02:02:09.597Z,10.70
2023-04-23T02:02:20.620Z,10.70
2023-04-23T02:02:32.642Z,10.70
2023-04-23T02:02:43.801Z,10.68
2023-04-23T02:02:55.721Z,10.70
2023-04-23T02:03:06.672Z,10.70
2023-04-23T02:03:17.825Z,10.70
2023-04-23T02:03:29.939Z,10.70
2023-04-23T02:03:41.713Z,10.70
2023-04-23T02:03:53.682Z,10.71
2023-04-23T02:04:05.694Z,10.70
2023-04-23T02:04:16.670Z,10.71
2023-04-23T02:04:27.675Z,10.71
2023-04-23T02:04:38.824Z,10.70
2023-04-23T02:04:49.581Z,10.70
2023-04-23T02:05:00.561Z,10.68
2023-04-23T02:05:11.541Z,10.70
2023-04-23T02:05:22.542Z,10.68
2023-04-23T02:05:33.564Z,10.70
2023-04-23T02:05:44.599Z,10.70
2023-04-23T02:05:56.593Z,10.68
2023-04-23T02:06:07.593Z,10.70
2023-04-23T02:06:18.594Z,10.66
2023-04-23T02:06:29.600Z,10.68
2023-04-23T02:06:40.606Z,10.66
2023-04-23T02:06:52.585Z,10.66
2023-04-23T02:07:03.581Z,10.66
2023-04-23T02:07:15.578Z,10.66
2023-04-23T02:07:26.556Z,10.65
2023-04-23T02:07:37.596Z,10.63
2023-04-23T02:07:48.604Z,10.62
2023-04-23T02:07:59.605Z,10.63
2023-04-23T02:08:11.597Z,10.62
2023-04-23T02:08:22.594Z,10.62
2023-04-23T02:08:33.580Z,10.62
2023-04-23T02:08:44.596Z,10.62
2023-04-23T02:08:55.586Z,10.60
2023-04-23T02:09:06.576Z,10.60
2023-04-23T02:09:17.612Z,10.59
2023-04-23T02:09:29.632Z,10.59
2023-04-23T02:09:41.600Z,10.58
2023-04-23T02:09:52.597Z,10.59
2023-04-23T02:10:04.613Z,10.58
2023-04-23T02:10:16.579Z,10.59
2023-04-23T02:10:27.578Z,10.58
2023-04-23T02:10:38.565Z,10.58
2023-04-23T02:10:49.580Z,10.59
2023-04-23T02:11:00.568Z,10.59
2023-04-23T02:11:11.573Z,10.59
2023-04-23T02:11:22.554Z,10.58
2023-04-23T02:11:33.560Z,10.58
2023-04-23T02:11:44.567Z,10.60
2023-04-23T02:11:55.570Z,10.59
2023-04-23T02:12:06.562Z,10.59
2023-04-23T02:12:17.615Z,10.59
2023-04-23T02:12:29.581Z,10.60
2023-04-23T02:12:40.577Z,10.60
2023-04-23T02:12:51.567Z,10.59
2023-04-23T02:13:02.566Z,10.60
2023-04-23T02:13:13.560Z,10.58
2023-04-23T02:13:24.569Z,10.56
2023-04-23T02:13:35.568Z,10.55
2023-04-23T02:13:46.582Z,10.56
2023-04-23T02:13:57.581Z,10.55
2023-04-23T02:14:08.561Z,10.55
2023-04-23T02:14:19.562Z,10.55
2023-04-23T02:14:30.631Z,10.55
2023-04-23T02:14:42.846Z,10.55
2023-04-23T02:14:54.564Z,10.53
2023-04-23T02:15:05.573Z,10.55
2023-04-23T02:15:16.631Z,10.53
2023-04-23T02:15:27.636Z,10.55
2023-04-23T02:15:39.615Z,10.55
2023-04-23T02:15:51.586Z,10.53
2023-04-23T02:16:02.734Z,10.53
2023-04-23T02:16:13.599Z,10.52
2023-04-23T02:16:24.674Z,10.53
2023-04-23T02:16:36.592Z,10.51
2023-04-23T02:16:48.598Z,10.52
2023-04-23T02:16:59.619Z,10.52
2023-04-23T02:17:11.589Z,10.52
2023-04-23T02:17:22.637Z,10.53
2023-04-23T02:17:33.581Z,10.52
2023-04-23T02:17:44.627Z,10.53
2023-04-23T02:17:56.676Z,10.52
2023-04-23T02:18:07.578Z,10.52
2023-04-23T02:18:18.587Z,10.53
2023-04-23T02:18:29.591Z,10.52
2023-04-23T02:18:40.577Z,10.52
2023-04-23T02:18:51.578Z,10.52
2023-04-23T02:19:04.082Z,10.51
2023-04-23T02:19:16.121Z,10.51
2023-04-23T02:19:26.571Z,10.47
2023-04-23T02:19:37.582Z,10.51
2023-04-23T02:19:48.583Z,10.51
2023-04-23T02:19:59.612Z,10.51
2023-04-23T02:20:11.577Z,10.47
2023-04-23T02:20:22.631Z,10.44
2023-04-23T02:20:34.602Z,10.44
2023-04-23T02:20:46.574Z,10.44
2023-04-23T02:20:57.577Z,10.43
2023-04-23T02:21:08.565Z,10.44
2023-04-23T02:21:19.579Z,10.44
2023-04-23T02:21:30.623Z,10.43
2023-04-23T02:21:42.580Z,10.44
2023-04-23T02:21:53.576Z,10.44
2023-04-23T02:22:04.569Z,10.44
2023-04-23T02:22:15.559Z,10.44
2023-04-23T02:22:26.646Z,10.46
2023-04-23T02:22:37.594Z,10.44
2023-04-23T02:22:48.589Z,10.46
2023-04-23T02:22:59.598Z,10.43
2023-04-23T02:23:10.592Z,10.44
2023-04-23T02:23:21.602Z,10.43
2023-04-23T02:23:32.603Z,10.43
2023-04-23T02:23:44.603Z,10.42
2023-04-23T02:23:56.574Z,10.40
2023-04-23T02:24:07.596Z,10.40
2023-04-23T02:24:18.610Z,10.40
2023-04-23T02:24:30.581Z,10.40
2023-04-23T02:24:41.702Z,10.39
2023-04-23T02:24:52.566Z,10.40